Time;durP1;ratioP1;P1;durP2;ratioP2;P2;SDS_P1;SDS_P2;PMS_P1;PMS_P2;Temp;Humidity;BMP_temperature;BMP_pressure;BME280_temperature;BME280_humidity;BME280_pressure;Samples;Min_cycle;Max_cycle;Signal;HPM_P1;HPM_P2
2020/12/13 00:00:00;;;;;;;8.25;2.33;;;26.00;51.90;;;;;;5074174;28;20027;-49
2020/12/13 00:02:26;;;;;;;5.10;2.47;;;25.90;51.90;;;;;;5074311;28;20017;-50
2020/12/13 00:04:53;;;;;;;5.03;2.08;;;25.90;52.00;;;;;;5074281;28;20020;-50
2020/12/13 00:07:19;;;;;;;5.65;1.90;;;25.90;52.10;;;;;;5074313;28;20035;-50
2020/12/13 00:09:46;;;;;;;6.15;2.10;;;25.80;52.10;;;;;;5074250;28;20103;-49
2020/12/13 00:12:12;;;;;;;7.22;2.35;;;25.80;52.30;;;;;;5073895;28;20028;-49
2020/12/13 00:14:39;;;;;;;5.63;2.10;;;25.70;52.20;;;;;;5073769;28;20024;-49
2020/12/13 00:17:05;;;;;;;5.85;1.92;;;25.70;52.30;;;;;;5073863;28;20028;-49
2020/12/13 00:19:32;;;;;;;5.53;1.98;;;25.60;52.30;;;;;;5074031;28;20021;-49
2020/12/13 00:21:58;;;;;;;3.72;1.67;;;25.60;52.50;;;;;;5073848;28;20024;-49
2020/12/13 00:24:25;;;;;;;6.65;2.28;;;25.60;52.50;;;;;;5073634;28;20039;-49
2020/12/13 00:26:52;;;;;;;5.13;2.00;;;25.50;52.40;;;;;;5072843;28;20115;-50
2020/12/13 00:29:18;;;;;;;5.13;2.08;;;25.50;52.50;;;;;;5073979;28;20027;-49
2020/12/13 00:31:45;;;;;;;6.07;1.67;;;25.50;52.60;;;;;;5073609;28;20037;-49
2020/12/13 00:34:12;;;;;;;5.13;1.83;;;25.40;52.60;;;;;;5072535;28;20028;-49
2020/12/13 00:36:38;;;;;;;13.07;2.17;;;25.40;52.60;;;;;;5073115;28;20035;-49
2020/12/13 00:39:05;;;;;;;8.52;1.90;;;25.30;52.50;;;;;;5073643;28;20024;-49
2020/12/13 00:41:32;;;;;;;5.55;1.73;;;25.30;52.70;;;;;;5073690;28;20021;-49
2020/12/13 00:43:59;;;;;;;8.30;2.20;;;25.20;52.60;;;;;;5073667;28;20032;-49
2020/12/13 00:46:26;;;;;;;6.00;2.00;;;25.20;52.70;;;;;;5073800;28;20017;-50
2020/12/13 00:48:52;;;;;;;7.07;2.40;;;25.10;52.80;;;;;;5073747;28;20052;-49
2020/12/13 00:51:26;;;;;;;6.38;2.38;;;25.00;52.80;;;;;;5073714;28;20032;-50
2020/12/13 00:53:53;;;;;;;6.45;2.50;;;25.00;52.90;;;;;;5072899;28;20025;-49
2020/12/13 00:56:20;;;;;;;5.93;2.63;;;24.90;52.90;;;;;;5073621;28;20020;-49
2020/12/13 00:58:46;;;;;;;4.32;2.35;;;24.90;53.00;;;;;;5073236;28;20457;-49
2020/12/13 01:01:13;;;;;;;6.28;2.40;;;24.80;53.10;;;;;;5073630;28;20057;-49
2020/12/13 01:03:39;;;;;;;8.10;2.80;;;24.80;53.10;;;;;;5073285;28;20063;-49
2020/12/13 01:06:06;;;;;;;7.18;2.67;;;24.70;53.00;;;;;;5073571;28;20100;-49
2020/12/13 01:08:33;;;;;;;20.92;3.22;;;24.70;53.00;;;;;;5072930;28;20025;-49
2020/12/13 01:10:59;;;;;;;14.07;3.53;;;24.70;53.10;;;;;;5073545;28;20024;-49
2020/12/13 01:13:26;;;;;;;24.20;4.00;;;24.60;52.40;;;;;;5067960;28;20028;-50
2020/12/13 01:15:54;;;;;;;15.90;3.67;;;24.60;52.50;;;;;;5073248;28;20061;-50
2020/12/13 01:18:21;;;;;;;14.10;3.35;;;24.60;52.80;;;;;;5073326;28;20372;-50
2020/12/13 01:20:47;;;;;;;15.90;3.47;;;24.60;52.90;;;;;;5073514;28;20484;-49
2020/12/13 01:23:14;;;;;;;15.43;3.50;;;24.70;53.10;;;;;;5072931;28;20173;-49
2020/12/13 01:25:40;;;;;;;14.90;3.00;;;24.70;53.20;;;;;;5073698;28;20085;-49
2020/12/13 01:28:07;;;;;;;14.23;3.28;;;24.70;53.30;;;;;;5073433;28;20024;-49
2020/12/13 01:30:33;;;;;;;17.60;3.08;;;24.70;53.50;;;;;;5073187;28;20433;-49
2020/12/13 01:33:00;;;;;;;18.17;3.10;;;24.80;53.70;;;;;;5072525;28;20037;-49
2020/12/13 01:35:26;;;;;;;16.83;3.35;;;24.80;53.80;;;;;;5072728;28;20507;-49
2020/12/13 01:37:53;;;;;;;11.68;3.15;;;24.90;54.00;;;;;;5063793;28;20055;-48
2020/12/13 01:40:20;;;;;;;21.75;3.42;;;24.90;54.00;;;;;;5072986;28;20016;-50
2020/12/13 01:42:47;;;;;;;14.75;2.90;;;25.00;54.10;;;;;;5072878;28;20469;-48
2020/12/13 01:45:21;;;;;;;12.05;2.67;;;25.10;54.10;;;;;;5072694;28;20021;-49
2020/12/13 01:47:50;;;;;;;16.80;3.45;;;25.10;54.10;;;;;;5075455;28;20024;-49
2020/12/13 01:50:56;;;;;;;14.73;3.00;;;25.20;54.20;;;;;;5076393;28;20017;-49
2020/12/13 01:53:17;;;;;;;10.65;2.58;;;25.30;54.10;;;;;;5077207;28;20040;-49
2020/12/13 01:55:47;;;;;;;15.30;3.00;;;25.40;54.10;;;;;;5076784;28;20024;-49
2020/12/13 01:58:27;;;;;;;10.73;2.50;;;25.50;54.10;;;;;;5076618;28;20027;-49
2020/12/13 02:00:56;;;;;;;27.02;8.38;;;25.50;54.00;;;;;;5076486;28;20367;-49
2020/12/13 02:03:33;;;;;;;101.00;54.78;;;25.60;53.90;;;;;;5075286;28;20406;-49
2020/12/13 02:06:17;;;;;;;334.10;212.23;;;25.70;54.00;;;;;;5075799;28;20111;-49
2020/12/13 02:08:44;;;;;;;656.00;386.08;;;25.80;54.10;;;;;;5076095;28;20017;-49
2020/12/13 02:11:11;;;;;;;757.58;424.45;;;25.80;54.10;;;;;;5076480;28;20471;-49
2020/12/13 02:13:38;;;;;;;666.67;385.88;;;25.90;54.30;;;;;;5076496;28;20114;-49
2020/12/13 02:16:07;;;;;;;661.33;372.35;;;25.90;54.20;;;;;;5076156;28;20475;-49
2020/12/13 02:18:35;;;;;;;631.42;362.52;;;26.00;54.20;;;;;;5074183;28;20089;-49
2020/12/13 02:21:02;;;;;;;615.97;344.77;;;26.00;54.00;;;;;;5075286;28;20491;-49
2020/12/13 02:23:30;;;;;;;582.25;330.33;;;26.10;53.90;;;;;;5076200;28;20041;-49
2020/12/13 02:25:57;;;;;;;559.60;321.70;;;26.10;53.80;;;;;;5076025;28;20372;-49
2020/12/13 02:28:23;;;;;;;548.05;315.80;;;26.20;53.90;;;;;;5076019;28;20024;-49
2020/12/13 02:30:50;;;;;;;529.92;300.92;;;26.20;54.00;;;;;;5075543;28;20111;-50
2020/12/13 02:33:17;;;;;;;511.73;291.20;;;26.20;53.90;;;;;;5076329;28;20361;-49
2020/12/13 02:35:43;;;;;;;503.35;282.80;;;26.20;53.80;;;;;;5075444;28;20491;-49
2020/12/13 02:38:10;;;;;;;493.85;276.70;;;26.20;53.70;;;;;;5073720;28;20028;-50
2020/12/13 02:40:36;;;;;;;475.33;259.05;;;26.20;53.60;;;;;;5076230;28;20027;-50
2020/12/13 02:43:03;;;;;;;458.75;253.88;;;26.30;53.60;;;;;;5075756;28;20036;-50
2020/12/13 02:45:29;;;;;;;437.67;242.38;;;26.20;53.50;;;;;;5075399;28;20094;-49
2020/12/13 02:47:56;;;;;;;424.40;229.05;;;26.30;53.50;;;;;;5075498;28;20508;-50
2020/12/13 02:50:22;;;;;;;415.90;219.50;;;26.20;53.40;;;;;;5074314;28;20025;-50
2020/12/13 02:52:49;;;;;;;416.92;222.52;;;26.20;53.50;;;;;;5075364;28;20074;-51
2020/12/13 02:55:15;;;;;;;381.55;207.60;;;26.20;53.40;;;;;;5075682;28;20047;-49
2020/12/13 02:57:42;;;;;;;382.58;204.43;;;26.20;53.40;;;;;;5074145;28;20021;-49
2020/12/13 03:00:09;;;;;;;375.00;194.18;;;26.20;53.30;;;;;;5075037;28;20020;-50
2020/12/13 03:02:35;;;;;;;359.92;179.82;;;26.20;53.40;;;;;;5075453;28;20027;-50
2020/12/13 03:05:02;;;;;;;335.15;174.63;;;26.20;53.30;;;;;;5075801;28;20069;-50
2020/12/13 03:07:29;;;;;;;326.40;168.23;;;26.20;53.30;;;;;;5074777;28;20104;-49
2020/12/13 03:09:55;;;;;;;316.33;161.70;;;26.20;53.30;;;;;;5075413;28;20029;-49
2020/12/13 03:12:22;;;;;;;301.67;154.57;;;26.20;53.10;;;;;;5073244;28;20029;-50
2020/12/13 03:14:48;;;;;;;284.08;146.15;;;26.30;53.10;;;;;;5058720;28;20488;-50
2020/12/13 03:17:15;;;;;;;271.60;143.38;;;26.30;53.10;;;;;;5055054;28;20032;-49
2020/12/13 03:19:41;;;;;;;258.50;134.23;;;26.40;53.10;;;;;;5055236;28;20094;-49
2020/12/13 03:22:08;;;;;;;250.32;130.32;;;26.40;53.00;;;;;;5070467;28;20362;-50
2020/12/13 03:24:34;;;;;;;238.38;125.13;;;26.50;52.90;;;;;;5074970;28;20044;-50
2020/12/13 03:27:01;;;;;;;219.00;119.70;;;26.60;52.80;;;;;;5074985;28;20025;-50
2020/12/13 03:29:27;;;;;;;210.75;114.93;;;26.60;52.50;;;;;;5074788;28;20028;-50
2020/12/13 03:31:54;;;;;;;214.90;114.28;;;26.70;52.60;;;;;;5074631;28;20416;-50
2020/12/13 03:34:20;;;;;;;206.70;106.03;;;26.70;52.40;;;;;;5074901;28;20017;-50
2020/12/13 03:36:47;;;;;;;191.25;102.80;;;26.80;52.40;;;;;;5074615;28;20028;-49
2020/12/13 03:39:14;;;;;;;184.05;98.20;;;26.90;52.20;;;;;;5074492;28;20021;-49
2020/12/13 03:41:40;;;;;;;182.27;92.38;;;27.00;52.10;;;;;;5074195;28;20460;-49
2020/12/13 03:44:07;;;;;;;173.05;89.13;;;27.00;51.90;;;;;;5073921;28;20043;-49
2020/12/13 03:46:33;;;;;;;165.93;88.18;;;27.10;51.90;;;;;;5074253;28;20047;-49
2020/12/13 03:49:00;;;;;;;148.40;83.38;;;27.10;51.70;;;;;;5074113;28;20044;-49
2020/12/13 03:51:26;;;;;;;147.88;81.25;;;27.20;51.70;;;;;;5074314;28;20032;-49
2020/12/13 03:53:53;;;;;;;150.13;77.65;;;27.20;51.50;;;;;;5074493;28;20047;-50
2020/12/13 03:56:19;;;;;;;135.98;72.63;;;27.20;51.30;;;;;;5074376;28;20055;-50
2020/12/13 03:58:46;;;;;;;128.23;71.57;;;27.30;51.20;;;;;;5061189;28;20021;-49
2020/12/13 04:01:12;;;;;;;134.93;69.72;;;27.40;51.10;;;;;;5060297;28;20016;-50
2020/12/13 04:03:39;;;;;;;118.88;64.40;;;27.40;51.60;;;;;;5074271;28;20040;-49
2020/12/13 04:06:05;;;;;;;117.35;62.33;;;27.40;50.80;;;;;;5074106;28;20525;-49
2020/12/13 04:08:32;;;;;;;124.80;61.45;;;27.50;50.90;;;;;;5074132;28;20016;-49
2020/12/13 04:10:58;;;;;;;115.45;58.50;;;27.50;50.60;;;;;;5073369;28;20077;-49
2020/12/13 04:13:25;;;;;;;106.43;55.72;;;27.50;50.60;;;;;;5073745;28;20028;-50
2020/12/13 04:15:53;;;;;;;123.93;55.08;;;27.50;50.40;;;;;;5072642;28;20460;-50
2020/12/13 04:18:19;;;;;;;90.70;48.78;;;27.50;50.10;;;;;;5074062;28;20036;-49
2020/12/13 04:20:46;;;;;;;88.88;47.75;;;27.50;49.30;;;;;;5073924;28;20017;-49
2020/12/13 04:23:12;;;;;;;108.07;49.63;;;27.50;48.80;;;;;;5073999;28;20111;-49
2020/12/13 04:25:39;;;;;;;94.00;46.45;;;27.50;48.30;;;;;;5074022;28;20056;-48
2020/12/13 04:28:06;;;;;;;96.65;44.78;;;27.50;48.30;;;;;;5073913;28;20081;-48
2020/12/13 04:30:33;;;;;;;83.93;41.22;;;27.50;48.20;;;;;;5072949;28;20032;-48
2020/12/13 04:33:00;;;;;;;79.85;40.00;;;27.40;48.20;;;;;;5073281;28;20063;-48
2020/12/13 04:35:27;;;;;;;80.75;39.08;;;27.40;48.30;;;;;;5073874;28;20459;-49
2020/12/13 04:37:53;;;;;;;71.03;39.28;;;27.40;48.30;;;;;;5073588;28;20020;-48
2020/12/13 04:40:19;;;;;;;72.68;36.35;;;27.40;48.50;;;;;;5073449;28;20124;-49
2020/12/13 04:42:49;;;;;;;78.53;36.38;;;27.30;48.60;;;;;;5073463;28;20028;-48
2020/12/13 04:45:16;;;;;;;72.78;37.38;;;27.20;48.70;;;;;;5073724;28;20103;-48
2020/12/13 04:48:07;;;;;;;71.53;34.65;;;27.20;48.80;;;;;;5072396;28;20020;-48
2020/12/13 04:50:39;;;;;;;69.27;33.07;;;27.20;48.80;;;;;;5072149;28;20020;-48
2020/12/13 04:53:08;;;;;;;74.45;32.30;;;27.20;49.10;;;;;;5073609;28;20264;-47
2020/12/13 04:55:53;;;;;;;62.47;31.85;;;27.20;49.50;;;;;;5073279;28;20106;-48
2020/12/13 04:58:21;;;;;;;67.70;30.08;;;27.20;49.50;;;;;;5072588;28;20032;-49
2020/12/13 05:00:58;;;;;;;56.17;30.05;;;27.20;49.60;;;;;;5073095;28;20483;-47
2020/12/13 05:03:26;;;;;;;63.28;28.75;;;27.20;49.60;;;;;;5073192;28;20040;-47
2020/12/13 05:05:58;;;;;;;51.22;27.17;;;27.30;49.70;;;;;;5073283;28;20024;-48
2020/12/13 05:08:30;;;;;;;54.55;25.70;;;27.30;49.60;;;;;;5073712;28;20031;-47
2020/12/13 05:10:58;;;;;;;50.30;25.35;;;27.40;49.50;;;;;;5073329;28;20475;-48
2020/12/13 05:13:24;;;;;;;44.17;24.55;;;27.40;49.50;;;;;;5067946;28;20406;-48
2020/12/13 05:15:51;;;;;;;46.78;23.15;;;27.50;49.30;;;;;;5068386;28;20118;-48
2020/12/13 05:18:17;;;;;;;44.22;22.92;;;27.60;49.20;;;;;;5067902;28;20059;-47
2020/12/13 05:20:44;;;;;;;42.38;21.83;;;27.60;49.00;;;;;;5071983;28;20100;-48
2020/12/13 05:23:11;;;;;;;41.35;20.55;;;27.70;48.80;;;;;;5075875;28;20025;-47
2020/12/13 05:25:41;;;;;;;52.20;21.38;;;27.80;48.60;;;;;;5076885;28;20453;-47
2020/12/13 05:28:14;;;;;;;37.25;19.88;;;27.80;48.30;;;;;;5077386;28;20021;-47
2020/12/13 05:30:46;;;;;;;44.75;19.42;;;27.90;48.50;;;;;;5075100;28;20024;-48
2020/12/13 05:33:22;;;;;;;;;;;28.00;48.30;;;;;;5076263;28;20040;-48
2020/12/13 05:35:49;;;;;;;33.45;17.20;;;28.10;48.90;;;;;;5075426;28;20008;-47
2020/12/13 05:38:16;;;;;;;40.95;18.50;;;28.20;48.30;;;;;;5075802;28;20078;-49
2020/12/13 05:40:43;;;;;;;37.72;17.20;;;28.20;48.10;;;;;;5075752;28;20020;-48
2020/12/13 05:43:21;;;;;;;31.27;16.58;;;28.30;48.60;;;;;;5075978;28;20074;-47
2020/12/13 05:53:36;;;;;;;31.80;14.43;;;28.50;48.30;;;;;;5076714;28;20456;-46
2020/12/13 05:56:04;;;;;;;31.17;13.65;;;28.60;48.30;;;;;;5064657;28;20031;-47
2020/12/13 05:58:31;;;;;;;28.38;13.00;;;28.60;48.30;;;;;;5063555;28;20031;-48
2020/12/13 06:00:58;;;;;;;29.13;12.60;;;28.70;47.90;;;;;;5058528;28;20052;-47
2020/12/13 06:03:37;;;;;;;28.30;12.07;;;28.70;47.70;;;;;;5068205;28;20093;-47
2020/12/13 06:06:10;;;;;;;30.77;12.18;;;28.80;47.70;;;;;;5075852;28;20029;-47
2020/12/13 06:09:08;;;;;;;26.75;11.23;;;28.80;47.30;;;;;;5075034;28;20021;-47
2020/12/13 06:11:43;;;;;;;30.73;11.23;;;28.90;47.40;;;;;;5076130;28;20473;-47
2020/12/13 06:14:21;;;;;;;23.63;9.82;;;28.90;47.30;;;;;;5076210;28;20479;-47
2020/12/13 06:16:49;;;;;;;25.67;11.43;;;28.90;47.30;;;;;;5076175;28;20028;-47
2020/12/13 06:19:20;;;;;;;31.00;10.23;;;28.90;47.30;;;;;;5075426;28;20024;-47
2020/12/13 06:21:47;;;;;;;25.42;9.82;;;29.00;47.30;;;;;;5074737;28;20102;-48
2020/12/13 06:24:15;;;;;;;19.50;8.55;;;29.00;47.10;;;;;;5073936;28;20040;-47
2020/12/13 06:26:42;;;;;;;18.02;8.80;;;29.10;46.80;;;;;;5076236;28;20020;-47
2020/12/13 06:29:08;;;;;;;22.60;8.40;;;29.10;46.70;;;;;;5075636;28;20020;-47
2020/12/13 06:31:37;;;;;;;19.58;8.38;;;29.10;46.30;;;;;;5075628;28;20369;-47
2020/12/13 06:34:04;;;;;;;21.15;8.10;;;29.20;46.20;;;;;;5074941;28;20024;-47
2020/12/13 06:36:36;;;;;;;18.85;7.32;;;29.20;46.40;;;;;;5075098;28;20025;-48
2020/12/13 06:39:06;;;;;;;;;;;29.20;46.30;;;;;;5076175;28;20024;-47
2020/12/13 06:41:35;;;;;;;22.33;7.45;;;29.30;47.00;;;;;;5075689;28;20363;-47
2020/12/13 06:44:05;;;;;;;13.13;6.32;;;29.30;46.30;;;;;;5074182;28;20395;-47
2020/12/13 06:46:32;;;;;;;16.38;6.78;;;29.30;46.20;;;;;;5075643;28;20024;-47
2020/12/13 06:48:59;;;;;;;13.35;6.30;;;29.30;46.00;;;;;;5075489;28;20027;-47
2020/12/13 06:51:30;;;;;;;20.17;6.80;;;29.40;46.00;;;;;;5075024;28;20020;-47
2020/12/13 06:53:57;;;;;;;;;;;29.40;45.90;;;;;;5075857;28;20341;-48
2020/12/13 06:56:24;;;;;;;13.77;5.88;;;29.40;46.60;;;;;;5075095;28;19908;-47
2020/12/13 06:58:56;;;;;;;13.52;6.10;;;29.50;46.10;;;;;;5073758;28;20522;-49
2020/12/13 07:01:28;;;;;;;16.65;5.82;;;29.40;45.80;;;;;;5072458;28;20046;-50
2020/12/13 07:04:00;;;;;;;15.25;5.22;;;29.40;45.80;;;;;;5075010;28;20086;-47
2020/12/13 07:06:42;;;;;;;;;;;29.40;45.90;;;;;;5075323;28;20020;-48
2020/12/13 07:09:11;;;;;;;15.23;5.72;;;29.40;46.70;;;;;;5090255;28;20267;-47
2020/12/13 07:11:40;;;;;;;15.30;5.80;;;29.40;46.30;;;;;;5075043;28;20372;-48
2020/12/13 07:14:13;;;;;;;13.38;5.50;;;29.40;46.30;;;;;;5075090;28;20035;-47
2020/12/13 07:16:46;;;;;;;11.43;5.18;;;29.30;46.30;;;;;;5075097;28;20048;-47
2020/12/13 07:19:18;;;;;;;11.02;5.18;;;29.40;46.40;;;;;;5074912;28;20081;-47
2020/12/13 07:21:45;;;;;;;;;;;29.30;46.30;;;;;;5075402;28;20031;-47
2020/12/13 07:24:12;;;;;;;12.50;5.15;;;29.30;46.90;;;;;;5075019;28;19908;-47
2020/12/13 07:26:39;;;;;;;15.20;5.30;;;29.30;46.60;;;;;;5075025;28;20025;-47
2020/12/13 07:29:25;;;;;;;14.30;4.90;;;29.20;46.40;;;;;;5074299;28;20165;-47
2020/12/13 07:31:53;;;;;;;13.85;4.70;;;29.20;46.50;;;;;;5074224;28;20135;-47
2020/12/13 07:34:19;;;;;;;11.15;4.60;;;29.10;46.70;;;;;;5074522;28;20360;-48
2020/12/13 07:36:46;;;;;;;12.65;4.80;;;29.10;46.60;;;;;;5074589;28;20028;-46
2020/12/13 07:39:15;;;;;;;11.25;4.32;;;29.10;46.60;;;;;;5073553;28;20453;-47
2020/12/13 07:41:43;;;;;;;11.77;3.90;;;29.00;46.70;;;;;;5073944;28;20032;-47
2020/12/13 07:44:13;;;;;;;13.13;4.50;;;29.00;46.80;;;;;;5074593;28;20376;-47
2020/12/13 07:46:41;;;;;;;11.68;4.07;;;28.90;46.80;;;;;;5074363;28;20068;-47
2020/12/13 07:49:13;;;;;;;10.85;4.13;;;28.90;46.90;;;;;;5074673;28;20028;-47
2020/12/13 07:51:42;;;;;;;10.52;3.90;;;28.80;46.90;;;;;;5074232;28;20369;-47
2020/12/13 07:54:14;;;;;;;12.05;4.28;;;28.70;46.90;;;;;;5074257;28;20032;-47
2020/12/13 07:56:42;;;;;;;10.52;4.10;;;28.70;46.90;;;;;;5074554;28;20103;-47
2020/12/13 07:59:11;;;;;;;7.40;3.85;;;28.60;46.90;;;;;;5074160;28;20024;-47
2020/12/13 08:01:38;;;;;;;8.85;3.95;;;28.60;47.00;;;;;;5073779;28;20099;-47
2020/12/13 08:04:05;;;;;;;9.95;3.72;;;28.50;47.00;;;;;;5074251;28;20072;-47
2020/12/13 08:06:32;;;;;;;15.57;3.65;;;28.40;47.00;;;;;;5073694;28;20479;-48
2020/12/13 08:08:59;;;;;;;7.30;3.83;;;28.30;47.10;;;;;;5074334;28;20353;-48
2020/12/13 08:11:26;;;;;;;9.98;3.60;;;28.30;47.10;;;;;;5073735;28;20457;-48
2020/12/13 08:13:55;;;;;;;9.50;3.30;;;28.20;47.10;;;;;;5071991;28;20103;-48
2020/12/13 08:16:26;;;;;;;10.02;3.90;;;28.20;47.10;;;;;;5057788;28;20368;-48
2020/12/13 08:19:05;;;;;;;8.25;3.28;;;28.10;47.20;;;;;;5073729;28;20070;-48
2020/12/13 08:21:49;;;;;;;6.18;3.30;;;28.00;47.20;;;;;;5072743;28;20373;-47
2020/12/13 08:24:17;;;;;;;9.48;3.20;;;27.90;47.20;;;;;;5074389;28;20035;-48
2020/12/13 08:26:44;;;;;;;7.63;3.40;;;27.90;47.40;;;;;;5073275;28;20362;-47
2020/12/13 08:29:11;;;;;;;6.82;3.00;;;27.70;47.40;;;;;;5072781;28;20024;-47
2020/12/13 08:31:39;;;;;;;7.20;2.83;;;27.70;47.40;;;;;;5072640;28;20075;-48
2020/12/13 08:34:07;;;;;;;12.88;3.60;;;27.60;47.80;;;;;;5072441;28;20108;-47
2020/12/13 08:36:35;;;;;;;8.20;3.35;;;27.50;47.50;;;;;;5072599;28;20025;-47
2020/12/13 08:39:09;;;;;;;9.57;3.03;;;27.40;47.60;;;;;;5072158;28;20102;-47
2020/12/13 08:41:36;;;;;;;8.35;2.42;;;27.40;48.10;;;;;;5067509;28;20036;-48
2020/12/13 08:44:03;;;;;;;9.10;2.97;;;27.30;47.80;;;;;;5053718;28;20470;-47
2020/12/13 08:46:41;;;;;;;6.70;2.63;;;27.20;48.50;;;;;;5062010;28;20098;-48
2020/12/13 08:49:07;;;;;;;7.53;2.38;;;27.10;47.90;;;;;;5061033;28;20027;-47
2020/12/13 08:51:34;;;;;;;5.30;2.88;;;27.00;48.00;;;;;;5073476;28;20024;-47
2020/12/13 08:54:03;;;;;;;6.75;2.63;;;26.90;48.00;;;;;;5073589;28;20034;-46
2020/12/13 08:56:32;;;;;;;4.88;2.40;;;26.80;48.20;;;;;;5071473;28;20020;-48
2020/12/13 08:58:59;;;;;;;6.15;2.58;;;26.80;48.30;;;;;;5061869;28;20024;-47
2020/12/13 09:01:35;;;;;;;5.72;2.78;;;26.70;48.30;;;;;;5067286;28;20029;-48
2020/12/13 09:04:20;;;;;;;5.38;2.22;;;26.60;48.30;;;;;;5072433;28;20153;-47
2020/12/13 09:06:54;;;;;;;5.78;2.33;;;26.50;48.50;;;;;;5073230;28;20025;-47
2020/12/13 09:09:21;;;;;;;9.77;2.40;;;26.40;48.50;;;;;;5073296;28;20035;-48
2020/12/13 09:11:48;;;;;;;4.78;2.30;;;26.30;48.60;;;;;;5073003;28;20103;-48
2020/12/13 09:14:25;;;;;;;7.80;2.40;;;26.20;48.70;;;;;;5073287;28;20372;-47
2020/12/13 09:16:52;;;;;;;4.25;2.10;;;26.20;48.80;;;;;;5073470;28;20016;-47
2020/12/13 09:19:18;;;;;;;4.95;2.20;;;26.10;48.90;;;;;;5073604;28;20023;-48
2020/12/13 09:21:56;;;;;;;5.18;2.00;;;26.00;49.00;;;;;;5072840;28;20016;-47
2020/12/13 09:24:29;;;;;;;12.88;4.07;;;25.90;49.10;;;;;;5072884;28;20076;-48
2020/12/13 09:27:04;;;;;;;6.30;2.70;;;25.90;51.20;;;;;;5072011;28;20436;-47
2020/12/13 09:29:32;;;;;;;6.78;2.60;;;25.80;50.20;;;;;;5073266;28;20021;-47
2020/12/13 09:32:00;;;;;;;7.05;2.60;;;25.70;50.20;;;;;;5072529;28;20131;-48
2020/12/13 09:34:26;;;;;;;7.28;2.75;;;25.60;50.30;;;;;;5073989;28;20024;-47
2020/12/13 09:36:53;;;;;;;6.75;2.88;;;25.60;50.50;;;;;;5072789;28;20104;-48
2020/12/13 09:39:19;;;;;;;6.50;2.60;;;25.50;50.70;;;;;;5072840;28;20020;-49
2020/12/13 09:41:46;;;;;;;5.63;2.53;;;25.40;50.80;;;;;;5072941;28;20024;-47
2020/12/13 09:44:13;;;;;;;7.22;2.50;;;25.30;50.90;;;;;;5071668;28;20036;-47
2020/12/13 09:46:40;;;;;;;7.68;2.30;;;25.30;51.10;;;;;;5072850;28;20107;-47
2020/12/13 09:49:06;;;;;;;8.63;2.75;;;25.20;51.20;;;;;;5072834;28;20029;-48
2020/12/13 09:51:33;;;;;;;5.82;2.40;;;25.20;51.30;;;;;;5072645;28;20032;-47
2020/12/13 09:53:59;;;;;;;6.75;2.92;;;25.10;51.40;;;;;;5072847;28;20115;-48
2020/12/13 09:56:26;;;;;;;7.57;2.40;;;25.10;51.60;;;;;;5072544;28;20512;-48
2020/12/13 09:58:52;;;;;;;6.05;2.40;;;25.00;51.60;;;;;;5072795;28;20112;-47
2020/12/13 10:01:19;;;;;;;5.00;2.38;;;24.90;51.70;;;;;;5073046;28;20017;-47
2020/12/13 10:03:49;;;;;;;7.72;2.80;;;24.90;51.80;;;;;;5072022;28;20044;-47
2020/12/13 10:09:07;;;;;;;5.43;2.28;;;24.70;52.00;;;;;;5074095;28;20030;-48
2020/12/13 10:11:37;;;;;;;5.78;2.53;;;24.70;52.10;;;;;;5076206;28;20020;-48
2020/12/13 10:14:05;;;;;;;7.13;2.40;;;24.60;52.20;;;;;;5075930;28;20016;-48
2020/12/13 10:16:33;;;;;;;4.57;2.10;;;24.60;52.30;;;;;;5076461;28;20021;-47
2020/12/13 10:18:59;;;;;;;4.70;2.20;;;24.50;52.50;;;;;;5075783;28;20029;-47
2020/12/13 10:21:31;;;;;;;5.68;2.35;;;24.50;52.60;;;;;;5076078;28;20415;-48
2020/12/13 10:23:58;;;;;;;6.50;2.33;;;24.40;52.80;;;;;;5076189;28;20039;-47
2020/12/13 10:26:30;;;;;;;5.85;2.50;;;24.30;52.90;;;;;;5075395;28;20024;-48
2020/12/13 10:28:58;;;;;;;5.93;2.33;;;24.30;53.10;;;;;;5076143;28;20032;-47
2020/12/13 10:31:45;;;;;;;7.57;2.58;;;24.30;53.30;;;;;;5076042;28;20052;-47
2020/12/13 10:34:13;;;;;;;5.25;2.40;;;24.20;53.40;;;;;;5076043;28;20029;-47
2020/12/13 10:36:40;;;;;;;5.63;2.75;;;24.10;53.60;;;;;;5075992;28;20032;-47
2020/12/13 10:39:08;;;;;;;6.70;2.60;;;24.10;53.70;;;;;;5075678;28;20028;-47
2020/12/13 10:41:37;;;;;;;6.28;2.20;;;24.00;53.90;;;;;;5061959;28;20074;-47
2020/12/13 10:44:04;;;;;;;5.85;2.28;;;24.00;54.00;;;;;;5066800;28;20043;-47
2020/12/13 10:46:31;;;;;;;5.05;2.28;;;23.90;54.00;;;;;;5075621;28;20031;-48
2020/12/13 10:48:57;;;;;;;6.00;2.50;;;23.90;54.20;;;;;;5075481;28;20031;-47
2020/12/13 10:51:24;;;;;;;6.63;2.47;;;23.80;54.20;;;;;;5075025;28;20457;-47
2020/12/13 10:53:50;;;;;;;5.63;2.38;;;23.80;54.30;;;;;;5075696;28;20034;-48
2020/12/13 10:56:17;;;;;;;8.15;2.70;;;23.70;54.30;;;;;;5074744;28;20050;-47
2020/12/13 10:58:45;;;;;;;6.82;2.50;;;23.70;54.70;;;;;;5075190;28;20102;-47
2020/12/13 11:01:12;;;;;;;7.15;2.70;;;23.60;54.90;;;;;;5075472;28;20048;-47
2020/12/13 11:03:38;;;;;;;11.63;2.63;;;23.60;55.00;;;;;;5075205;28;20115;-47
2020/12/13 11:06:08;;;;;;;7.95;2.65;;;23.60;55.00;;;;;;5075602;28;20028;-47
2020/12/13 11:08:35;;;;;;;6.72;2.30;;;23.50;55.10;;;;;;5075271;28;20033;-47
2020/12/13 11:11:01;;;;;;;5.15;2.03;;;23.40;55.00;;;;;;5075504;28;20355;-48
2020/12/13 11:13:28;;;;;;;6.18;2.50;;;23.40;55.10;;;;;;5075502;28;20402;-47
2020/12/13 11:15:54;;;;;;;9.70;2.42;;;23.30;55.10;;;;;;5075410;28;20020;-48
2020/12/13 11:18:21;;;;;;;5.85;2.15;;;23.30;55.10;;;;;;5074967;28;20103;-48
2020/12/13 11:20:47;;;;;;;7.10;2.20;;;23.30;55.20;;;;;;5074710;28;20130;-48
2020/12/13 11:23:14;;;;;;;4.88;2.10;;;23.20;55.10;;;;;;5074710;28;20032;-48
2020/12/13 11:25:40;;;;;;;4.78;2.20;;;23.10;55.10;;;;;;5074404;28;20028;-47
2020/12/13 11:28:07;;;;;;;5.90;2.10;;;23.10;55.20;;;;;;5075033;28;20017;-47
2020/12/13 11:30:34;;;;;;;5.70;1.90;;;23.10;55.20;;;;;;5074429;28;20025;-47
2020/12/13 11:33:01;;;;;;;5.47;2.05;;;23.00;55.20;;;;;;5074271;28;20051;-47
2020/12/13 11:35:27;;;;;;;5.95;1.80;;;22.90;55.10;;;;;;5075030;28;20098;-47
2020/12/13 11:37:54;;;;;;;5.25;2.15;;;22.90;55.20;;;;;;5074831;28;20077;-47
2020/12/13 11:40:21;;;;;;;6.57;1.73;;;22.90;55.20;;;;;;5074882;28;20107;-48
2020/12/13 11:42:47;;;;;;;6.82;2.28;;;22.80;55.20;;;;;;5074319;28;20067;-47
2020/12/13 11:45:14;;;;;;;4.97;1.95;;;22.80;55.20;;;;;;5074955;28;20016;-47
2020/12/13 11:47:41;;;;;;;6.57;1.80;;;22.70;55.20;;;;;;5074390;28;20025;-47
2020/12/13 11:50:07;;;;;;;4.22;1.90;;;22.70;55.20;;;;;;5074685;28;20111;-48
2020/12/13 11:52:34;;;;;;;5.22;1.90;;;22.60;55.20;;;;;;5073900;28;20021;-47
2020/12/13 11:55:00;;;;;;;4.00;1.70;;;22.60;55.30;;;;;;5074199;28;20474;-47
2020/12/13 11:57:27;;;;;;;3.83;1.77;;;22.50;55.30;;;;;;5074213;28;20026;-47
2020/12/13 11:59:53;;;;;;;3.75;1.67;;;22.50;55.30;;;;;;5074115;28;20017;-48
2020/12/13 12:02:20;;;;;;;5.05;1.80;;;22.50;55.40;;;;;;5073715;28;20059;-47
2020/12/13 12:04:47;;;;;;;3.38;1.70;;;22.40;55.50;;;;;;5074181;28;20032;-47
2020/12/13 12:07:14;;;;;;;3.70;1.80;;;22.40;55.50;;;;;;5074389;28;20498;-47
2020/12/13 12:09:40;;;;;;;6.63;1.70;;;22.30;55.50;;;;;;5073953;28;20031;-47
2020/12/13 12:12:07;;;;;;;5.53;1.73;;;22.30;55.60;;;;;;5074322;28;20016;-47
2020/12/13 12:14:34;;;;;;;4.43;1.70;;;22.20;55.60;;;;;;5074260;28;20025;-47
2020/12/13 12:17:03;;;;;;;4.00;1.73;;;22.20;55.70;;;;;;5073716;28;20032;-47
2020/12/13 12:19:31;;;;;;;4.80;1.60;;;22.10;55.70;;;;;;5073403;28;20101;-47
2020/12/13 12:21:57;;;;;;;4.57;1.75;;;22.10;55.70;;;;;;5073422;28;20043;-47
2020/12/13 12:24:24;;;;;;;4.68;1.70;;;22.00;55.70;;;;;;5074021;28;20075;-46
2020/12/13 12:26:51;;;;;;;4.07;1.73;;;22.00;55.80;;;;;;5073713;28;20024;-48
2020/12/13 12:29:21;;;;;;;3.22;1.55;;;22.00;55.80;;;;;;5073629;28;20024;-47
2020/12/13 12:31:49;;;;;;;4.55;1.70;;;22.00;55.90;;;;;;5072581;28;20492;-47
2020/12/13 12:34:16;;;;;;;4.30;1.73;;;21.90;55.90;;;;;;5073869;28;20021;-47
2020/12/13 12:36:43;;;;;;;3.75;1.58;;;21.90;55.90;;;;;;5073706;28;20019;-47
2020/12/13 12:39:10;;;;;;;6.00;1.42;;;21.80;55.90;;;;;;5073790;28;20040;-47
2020/12/13 12:41:36;;;;;;;3.50;1.40;;;21.80;56.00;;;;;;5072656;28;20020;-47
2020/12/13 12:44:03;;;;;;;3.92;1.50;;;21.80;56.00;;;;;;5073023;28;20028;-47
2020/12/13 12:46:30;;;;;;;4.00;1.27;;;21.70;56.00;;;;;;5073799;28;20055;-47
2020/12/13 12:48:57;;;;;;;3.97;1.60;;;21.70;56.10;;;;;;5073231;28;20031;-47
2020/12/13 12:51:27;;;;;;;4.68;1.52;;;21.60;56.10;;;;;;5073450;28;20070;-47